sensor_id;sensor_type;location;lat;lon;timestamp;P1;durP1;ratioP1;P2;durP2;ratioP2
37169;SDS011;23062;13.952;100.608;2022-08-23T00:01:38;4.00;;;3.00;;
37169;SDS011;23062;13.952;100.608;2022-08-23T00:06:29;6.00;;;4.00;;
37169;SDS011;23062;13.952;100.608;2022-08-23T00:11:34;5.00;;;4.00;;
37169;SDS011;23062;13.952;100.608;2022-08-23T00:16:30;4.00;;;3.00;;
37169;SDS011;23062;13.952;100.608;2022-08-23T00:21:20;7.00;;;5.00;;
37169;SDS011;23062;13.952;100.608;2022-08-23T00:26:11;5.00;;;3.00;;
37169;SDS011;23062;13.952;100.608;2022-08-23T00:31:00;7.00;;;4.67;;
37169;SDS011;23062;13.952;100.608;2022-08-23T00:35:50;6.00;;;4.00;;
37169;SDS011;23062;13.952;100.608;2022-08-23T00:40:39;6.00;;;4.00;;
37169;SDS011;23062;13.952;100.608;2022-08-23T00:45:39;6.00;;;4.00;;
37169;SDS011;23062;13.952;100.608;2022-08-23T00:50:58;3.00;;;2.00;;
37169;SDS011;23062;13.952;100.608;2022-08-23T00:55:49;5.00;;;3.00;;
37169;SDS011;23062;13.952;100.608;2022-08-23T01:00:39;6.00;;;4.00;;
37169;SDS011;23062;13.952;100.608;2022-08-23T01:05:30;6.00;;;4.00;;
37169;SDS011;23062;13.952;100.608;2022-08-23T01:10:24;5.00;;;4.00;;
37169;SDS011;23062;13.952;100.608;2022-08-23T01:15:18;7.00;;;4.00;;
37169;SDS011;23062;13.952;100.608;2022-08-23T01:20:08;7.00;;;5.00;;
37169;SDS011;23062;13.952;100.608;2022-08-23T01:25:03;5.00;;;3.00;;
37169;SDS011;23062;13.952;100.608;2022-08-23T01:29:53;4.00;;;3.00;;
37169;SDS011;23062;13.952;100.608;2022-08-23T01:34:42;6.00;;;4.00;;
37169;SDS011;23062;13.952;100.608;2022-08-23T01:39:31;3.00;;;2.00;;
37169;SDS011;23062;13.952;100.608;2022-08-23T01:44:22;6.00;;;4.00;;
37169;SDS011;23062;13.952;100.608;2022-08-23T01:49:14;5.00;;;3.00;;
37169;SDS011;23062;13.952;100.608;2022-08-23T01:54:04;4.00;;;3.00;;
37169;SDS011;23062;13.952;100.608;2022-08-23T01:58:53;4.00;;;3.00;;
37169;SDS011;23062;13.952;100.608;2022-08-23T02:03:43;4.00;;;3.00;;
37169;SDS011;23062;13.952;100.608;2022-08-23T02:08:33;3.00;;;2.00;;
37169;SDS011;23062;13.952;100.608;2022-08-23T02:13:40;4.00;;;2.00;;
37169;SDS011;23062;13.952;100.608;2022-08-23T02:18:30;7.00;;;4.00;;
37169;SDS011;23062;13.952;100.608;2022-08-23T02:23:20;3.00;;;2.00;;
37169;SDS011;23062;13.952;100.608;2022-08-23T02:28:11;5.00;;;3.00;;
37169;SDS011;23062;13.952;100.608;2022-08-23T02:33:00;3.00;;;2.00;;
37169;SDS011;23062;13.952;100.608;2022-08-23T02:37:50;7.00;;;4.00;;
37169;SDS011;23062;13.952;100.608;2022-08-23T02:42:39;4.00;;;2.00;;
37169;SDS011;23062;13.952;100.608;2022-08-23T02:47:29;3.00;;;2.00;;
37169;SDS011;23062;13.952;100.608;2022-08-23T02:52:18;4.00;;;2.00;;
37169;SDS011;23062;13.952;100.608;2022-08-23T02:57:09;4.00;;;2.00;;
37169;SDS011;23062;13.952;100.608;2022-08-23T03:01:58;5.00;;;3.00;;
37169;SDS011;23062;13.952;100.608;2022-08-23T03:06:47;3.00;;;1.87;;
37169;SDS011;23062;13.952;100.608;2022-08-23T03:11:36;4.00;;;2.00;;
37169;SDS011;23062;13.952;100.608;2022-08-23T03:16:27;3.00;;;2.00;;
37169;SDS011;23062;13.952;100.608;2022-08-23T03:21:17;4.00;;;2.00;;
37169;SDS011;23062;13.952;100.608;2022-08-23T03:26:07;5.00;;;3.00;;
37169;SDS011;23062;13.952;100.608;2022-08-23T03:30:57;4.00;;;3.00;;
37169;SDS011;23062;13.952;100.608;2022-08-23T03:35:46;3.00;;;2.00;;
37169;SDS011;23062;13.952;100.608;2022-08-23T03:40:36;5.00;;;3.00;;
37169;SDS011;23062;13.952;100.608;2022-08-23T03:45:26;5.00;;;3.00;;
37169;SDS011;23062;13.952;100.608;2022-08-23T03:50:17;5.00;;;3.00;;
37169;SDS011;23062;13.952;100.608;2022-08-23T03:55:07;5.00;;;3.00;;
37169;SDS011;23062;13.952;100.608;2022-08-23T03:59:57;5.00;;;3.00;;
37169;SDS011;23062;13.952;100.608;2022-08-23T04:04:47;3.00;;;2.00;;
37169;SDS011;23062;13.952;100.608;2022-08-23T04:09:36;3.00;;;2.00;;
37169;SDS011;23062;13.952;100.608;2022-08-23T04:14:25;3.00;;;2.00;;
37169;SDS011;23062;13.952;100.608;2022-08-23T04:19:14;4.00;;;2.00;;
37169;SDS011;23062;13.952;100.608;2022-08-23T04:24:04;3.00;;;2.00;;
37169;SDS011;23062;13.952;100.608;2022-08-23T04:28:55;5.00;;;3.00;;
37169;SDS011;23062;13.952;100.608;2022-08-23T04:33:44;5.00;;;3.00;;
37169;SDS011;23062;13.952;100.608;2022-08-23T04:38:35;6.00;;;4.00;;
37169;SDS011;23062;13.952;100.608;2022-08-23T04:43:24;5.00;;;3.00;;
37169;SDS011;23062;13.952;100.608;2022-08-23T04:48:14;5.00;;;3.00;;
37169;SDS011;23062;13.952;100.608;2022-08-23T04:53:03;4.00;;;3.00;;
37169;SDS011;23062;13.952;100.608;2022-08-23T04:57:53;5.00;;;2.80;;
37169;SDS011;23062;13.952;100.608;2022-08-23T05:02:42;6.00;;;4.00;;
37169;SDS011;23062;13.952;100.608;2022-08-23T05:07:32;6.00;;;4.00;;
37169;SDS011;23062;13.952;100.608;2022-08-23T05:12:21;3.00;;;2.00;;
37169;SDS011;23062;13.952;100.608;2022-08-23T05:17:11;5.00;;;3.00;;
37169;SDS011;23062;13.952;100.608;2022-08-23T05:22:00;6.00;;;4.00;;
37169;SDS011;23062;13.952;100.608;2022-08-23T05:26:49;5.00;;;3.00;;
37169;SDS011;23062;13.952;100.608;2022-08-23T05:31:39;6.00;;;4.00;;
37169;SDS011;23062;13.952;100.608;2022-08-23T05:36:28;7.00;;;5.00;;
37169;SDS011;23062;13.952;100.608;2022-08-23T05:41:18;8.00;;;5.00;;
37169;SDS011;23062;13.952;100.608;2022-08-23T05:46:09;6.00;;;4.00;;
37169;SDS011;23062;13.952;100.608;2022-08-23T05:51:09;4.00;;;2.00;;
37169;SDS011;23062;13.952;100.608;2022-08-23T05:56:10;3.00;;;2.00;;
37169;SDS011;23062;13.952;100.608;2022-08-23T06:01:01;4.00;;;3.00;;
37169;SDS011;23062;13.952;100.608;2022-08-23T06:05:56;5.00;;;2.80;;
37169;SDS011;23062;13.952;100.608;2022-08-23T06:10:47;6.00;;;4.00;;
37169;SDS011;23062;13.952;100.608;2022-08-23T06:15:41;4.00;;;3.00;;
37169;SDS011;23062;13.952;100.608;2022-08-23T06:20:31;6.00;;;4.00;;
37169;SDS011;23062;13.952;100.608;2022-08-23T06:25:20;5.00;;;3.00;;
37169;SDS011;23062;13.952;100.608;2022-08-23T06:30:10;6.00;;;4.00;;
37169;SDS011;23062;13.952;100.608;2022-08-23T06:34:59;5.00;;;3.00;;
37169;SDS011;23062;13.952;100.608;2022-08-23T06:39:48;5.00;;;3.00;;
37169;SDS011;23062;13.952;100.608;2022-08-23T06:44:38;6.00;;;4.00;;
37169;SDS011;23062;13.952;100.608;2022-08-23T06:49:27;5.00;;;3.00;;
37169;SDS011;23062;13.952;100.608;2022-08-23T06:54:18;5.00;;;3.00;;
37169;SDS011;23062;13.952;100.608;2022-08-23T06:59:09;5.00;;;3.00;;
37169;SDS011;23062;13.952;100.608;2022-08-23T07:04:00;7.00;;;5.00;;
37169;SDS011;23062;13.952;100.608;2022-08-23T07:08:50;5.00;;;3.00;;
37169;SDS011;23062;13.952;100.608;2022-08-23T07:13:40;7.00;;;5.00;;
37169;SDS011;23062;13.952;100.608;2022-08-23T07:18:29;6.00;;;4.00;;
37169;SDS011;23062;13.952;100.608;2022-08-23T07:23:19;4.00;;;3.00;;
37169;SDS011;23062;13.952;100.608;2022-08-23T07:28:08;5.00;;;3.00;;
37169;SDS011;23062;13.952;100.608;2022-08-23T07:32:59;7.00;;;5.00;;
37169;SDS011;23062;13.952;100.608;2022-08-23T07:37:48;6.00;;;4.00;;
37169;SDS011;23062;13.952;100.608;2022-08-23T07:42:37;5.00;;;2.60;;
37169;SDS011;23062;13.952;100.608;2022-08-23T07:47:27;6.00;;;4.00;;
37169;SDS011;23062;13.952;100.608;2022-08-23T07:52:17;9.00;;;6.00;;
37169;SDS011;23062;13.952;100.608;2022-08-23T07:57:07;5.00;;;3.00;;
37169;SDS011;23062;13.952;100.608;2022-08-23T08:01:56;7.00;;;5.00;;
37169;SDS011;23062;13.952;100.608;2022-08-23T08:06:47;9.00;;;6.00;;
37169;SDS011;23062;13.952;100.608;2022-08-23T08:11:38;5.00;;;3.00;;
37169;SDS011;23062;13.952;100.608;2022-08-23T08:16:28;8.00;;;5.00;;
37169;SDS011;23062;13.952;100.608;2022-08-23T08:21:20;4.00;;;3.00;;
37169;SDS011;23062;13.952;100.608;2022-08-23T08:26:08;6.00;;;4.00;;
37169;SDS011;23062;13.952;100.608;2022-08-23T08:30:58;6.00;;;4.00;;
37169;SDS011;23062;13.952;100.608;2022-08-23T08:35:49;5.00;;;3.00;;
37169;SDS011;23062;13.952;100.608;2022-08-23T08:40:39;6.00;;;4.00;;
37169;SDS011;23062;13.952;100.608;2022-08-23T08:45:31;8.00;;;5.00;;
37169;SDS011;23062;13.952;100.608;2022-08-23T08:50:23;13.00;;;9.00;;
37169;SDS011;23062;13.952;100.608;2022-08-23T08:55:20;19.00;;;15.00;;
37169;SDS011;23062;13.952;100.608;2022-08-23T09:00:20;21.00;;;16.00;;
37169;SDS011;23062;13.952;100.608;2022-08-23T09:05:14;16.00;;;11.00;;
37169;SDS011;23062;13.952;100.608;2022-08-23T09:10:20;13.00;;;9.00;;
37169;SDS011;23062;13.952;100.608;2022-08-23T09:15:13;11.00;;;8.00;;
37169;SDS011;23062;13.952;100.608;2022-08-23T09:20:13;11.00;;;8.00;;
37169;SDS011;23062;13.952;100.608;2022-08-23T09:25:09;12.00;;;8.00;;
37169;SDS011;23062;13.952;100.608;2022-08-23T09:30:02;11.00;;;7.47;;
37169;SDS011;23062;13.952;100.608;2022-08-23T09:34:52;9.00;;;7.00;;
37169;SDS011;23062;13.952;100.608;2022-08-23T09:39:50;12.00;;;8.00;;
37169;SDS011;23062;13.952;100.608;2022-08-23T09:44:39;11.00;;;8.00;;
37169;SDS011;23062;13.952;100.608;2022-08-23T09:49:29;10.00;;;7.00;;
37169;SDS011;23062;13.952;100.608;2022-08-23T09:54:34;11.00;;;8.00;;
37169;SDS011;23062;13.952;100.608;2022-08-23T10:04:23;9.00;;;6.00;;
37169;SDS011;23062;13.952;100.608;2022-08-23T10:09:24;10.00;;;7.00;;
37169;SDS011;23062;13.952;100.608;2022-08-23T10:14:15;12.00;;;8.00;;
37169;SDS011;23062;13.952;100.608;2022-08-23T10:24:28;11.00;;;8.00;;
37169;SDS011;23062;13.952;100.608;2022-08-23T10:29:28;12.00;;;8.00;;
37169;SDS011;23062;13.952;100.608;2022-08-23T10:34:42;10.00;;;6.53;;
37169;SDS011;23062;13.952;100.608;2022-08-23T10:39:41;13.00;;;9.00;;
37169;SDS011;23062;13.952;100.608;2022-08-23T10:49:45;16.00;;;12.00;;
37169;SDS011;23062;13.952;100.608;2022-08-23T10:54:43;10.00;;;7.00;;
37169;SDS011;23062;13.952;100.608;2022-08-23T10:59:35;12.00;;;9.00;;
37169;SDS011;23062;13.952;100.608;2022-08-23T11:09:43;9.00;;;6.00;;
37169;SDS011;23062;13.952;100.608;2022-08-23T11:19:44;12.00;;;8.00;;
37169;SDS011;23062;13.952;100.608;2022-08-23T11:34:01;8.00;;;6.00;;
37169;SDS011;23062;13.952;100.608;2022-08-23T11:43:47;11.00;;;8.00;;
37169;SDS011;23062;13.952;100.608;2022-08-23T11:48:44;9.00;;;6.00;;
37169;SDS011;23062;13.952;100.608;2022-08-23T11:58:44;14.00;;;11.00;;
37169;SDS011;23062;13.952;100.608;2022-08-23T12:03:26;12.00;;;8.00;;
37169;SDS011;23062;13.952;100.608;2022-08-23T12:08:30;12.00;;;9.00;;
37169;SDS011;23062;13.952;100.608;2022-08-23T12:18:12;10.00;;;7.00;;
37169;SDS011;23062;13.952;100.608;2022-08-23T12:23:13;12.00;;;8.00;;
37169;SDS011;23062;13.952;100.608;2022-08-23T12:33:32;13.00;;;9.00;;
37169;SDS011;23062;13.952;100.608;2022-08-23T12:43:58;18.00;;;13.00;;
37169;SDS011;23062;13.952;100.608;2022-08-23T12:48:48;14.00;;;10.00;;
37169;SDS011;23062;13.952;100.608;2022-08-23T12:53:39;13.00;;;9.00;;
37169;SDS011;23062;13.952;100.608;2022-08-23T12:58:31;10.00;;;7.00;;
37169;SDS011;23062;13.952;100.608;2022-08-23T13:03:30;9.00;;;7.00;;
37169;SDS011;23062;13.952;100.608;2022-08-23T13:08:20;12.00;;;8.00;;
37169;SDS011;23062;13.952;100.608;2022-08-23T13:13:11;11.00;;;8.00;;
37169;SDS011;23062;13.952;100.608;2022-08-23T13:18:02;13.00;;;9.00;;
37169;SDS011;23062;13.952;100.608;2022-08-23T13:22:59;10.00;;;7.00;;
37169;SDS011;23062;13.952;100.608;2022-08-23T13:27:51;11.00;;;8.00;;
37169;SDS011;23062;13.952;100.608;2022-08-23T13:32:44;9.00;;;7.00;;
37169;SDS011;23062;13.952;100.608;2022-08-23T13:37:41;11.00;;;8.00;;
37169;SDS011;23062;13.952;100.608;2022-08-23T13:42:49;11.00;;;7.00;;
37169;SDS011;23062;13.952;100.608;2022-08-23T13:47:32;10.00;;;8.00;;
37169;SDS011;23062;13.952;100.608;2022-08-23T13:52:22;12.00;;;9.00;;
37169;SDS011;23062;13.952;100.608;2022-08-23T13:57:12;10.00;;;7.00;;
37169;SDS011;23062;13.952;100.608;2022-08-23T14:02:09;10.00;;;7.00;;
37169;SDS011;23062;13.952;100.608;2022-08-23T14:07:00;11.00;;;8.00;;
37169;SDS011;23062;13.952;100.608;2022-08-23T14:11:51;11.00;;;8.00;;
37169;SDS011;23062;13.952;100.608;2022-08-23T14:16:41;11.00;;;8.00;;
37169;SDS011;23062;13.952;100.608;2022-08-23T14:21:31;12.00;;;8.00;;
37169;SDS011;23062;13.952;100.608;2022-08-23T14:26:21;8.00;;;6.00;;
37169;SDS011;23062;13.952;100.608;2022-08-23T14:31:11;13.00;;;10.00;;
37169;SDS011;23062;13.952;100.608;2022-08-23T14:36:01;9.00;;;7.00;;
37169;SDS011;23062;13.952;100.608;2022-08-23T14:40:53;14.00;;;10.00;;
37169;SDS011;23062;13.952;100.608;2022-08-23T14:45:46;13.00;;;9.00;;
37169;SDS011;23062;13.952;100.608;2022-08-23T14:50:35;13.00;;;9.00;;
37169;SDS011;23062;13.952;100.608;2022-08-23T14:55:25;12.00;;;9.00;;
37169;SDS011;23062;13.952;100.608;2022-08-23T15:00:15;12.00;;;8.00;;
37169;SDS011;23062;13.952;100.608;2022-08-23T15:05:06;10.00;;;7.00;;
37169;SDS011;23062;13.952;100.608;2022-08-23T15:09:56;12.00;;;9.00;;
37169;SDS011;23062;13.952;100.608;2022-08-23T15:14:48;12.00;;;8.00;;
37169;SDS011;23062;13.952;100.608;2022-08-23T15:19:38;11.00;;;8.00;;
37169;SDS011;23062;13.952;100.608;2022-08-23T15:24:27;13.00;;;9.00;;
37169;SDS011;23062;13.952;100.608;2022-08-23T15:29:17;10.00;;;7.00;;
37169;SDS011;23062;13.952;100.608;2022-08-23T15:34:07;13.00;;;9.00;;
37169;SDS011;23062;13.952;100.608;2022-08-23T15:38:56;13.00;;;10.00;;
37169;SDS011;23062;13.952;100.608;2022-08-23T15:43:47;12.00;;;8.00;;
37169;SDS011;23062;13.952;100.608;2022-08-23T15:48:40;11.00;;;8.00;;
37169;SDS011;23062;13.952;100.608;2022-08-23T15:53:31;15.00;;;11.00;;
37169;SDS011;23062;13.952;100.608;2022-08-23T15:58:22;11.00;;;8.00;;
37169;SDS011;23062;13.952;100.608;2022-08-23T16:03:12;10.00;;;7.00;;
37169;SDS011;23062;13.952;100.608;2022-08-23T16:08:02;9.00;;;6.00;;
37169;SDS011;23062;13.952;100.608;2022-08-23T16:12:52;8.00;;;6.00;;
37169;SDS011;23062;13.952;100.608;2022-08-23T16:17:42;10.00;;;7.00;;
37169;SDS011;23062;13.952;100.608;2022-08-23T16:22:31;9.00;;;6.00;;
37169;SDS011;23062;13.952;100.608;2022-08-23T16:27:21;11.00;;;7.47;;
37169;SDS011;23062;13.952;100.608;2022-08-23T16:32:11;10.00;;;7.00;;
37169;SDS011;23062;13.952;100.608;2022-08-23T16:37:01;12.00;;;9.00;;
37169;SDS011;23062;13.952;100.608;2022-08-23T16:41:52;12.00;;;8.00;;
37169;SDS011;23062;13.952;100.608;2022-08-23T16:46:42;13.00;;;9.00;;
37169;SDS011;23062;13.952;100.608;2022-08-23T16:51:32;9.00;;;6.00;;
37169;SDS011;23062;13.952;100.608;2022-08-23T16:56:21;10.00;;;7.00;;
37169;SDS011;23062;13.952;100.608;2022-08-23T17:01:11;8.00;;;6.00;;
37169;SDS011;23062;13.952;100.608;2022-08-23T17:06:02;11.00;;;8.00;;
37169;SDS011;23062;13.952;100.608;2022-08-23T17:10:54;9.00;;;7.00;;
37169;SDS011;23062;13.952;100.608;2022-08-23T17:15:43;12.00;;;9.00;;
37169;SDS011;23062;13.952;100.608;2022-08-23T17:20:35;10.00;;;7.00;;
37169;SDS011;23062;13.952;100.608;2022-08-23T17:25:25;13.00;;;9.00;;
37169;SDS011;23062;13.952;100.608;2022-08-23T17:30:16;12.00;;;8.40;;
37169;SDS011;23062;13.952;100.608;2022-08-23T17:35:08;10.00;;;7.00;;
37169;SDS011;23062;13.952;100.608;2022-08-23T17:39:59;7.00;;;5.00;;
37169;SDS011;23062;13.952;100.608;2022-08-23T17:44:49;9.00;;;6.00;;
37169;SDS011;23062;13.952;100.608;2022-08-23T17:49:38;10.00;;;7.00;;
37169;SDS011;23062;13.952;100.608;2022-08-23T17:54:28;10.00;;;7.00;;
37169;SDS011;23062;13.952;100.608;2022-08-23T17:59:18;12.00;;;8.00;;
37169;SDS011;23062;13.952;100.608;2022-08-23T18:04:08;9.00;;;7.00;;
37169;SDS011;23062;13.952;100.608;2022-08-23T18:08:58;10.00;;;7.00;;
37169;SDS011;23062;13.952;100.608;2022-08-23T18:13:48;9.00;;;6.00;;
37169;SDS011;23062;13.952;100.608;2022-08-23T18:18:38;11.00;;;8.00;;
37169;SDS011;23062;13.952;100.608;2022-08-23T18:23:28;9.00;;;6.00;;
37169;SDS011;23062;13.952;100.608;2022-08-23T18:28:17;8.00;;;5.00;;
37169;SDS011;23062;13.952;100.608;2022-08-23T18:33:07;8.00;;;5.00;;
37169;SDS011;23062;13.952;100.608;2022-08-23T18:37:58;7.00;;;5.00;;
37169;SDS011;23062;13.952;100.608;2022-08-23T18:42:47;9.00;;;6.00;;
37169;SDS011;23062;13.952;100.608;2022-08-23T18:47:37;8.00;;;6.00;;
37169;SDS011;23062;13.952;100.608;2022-08-23T18:52:26;9.00;;;6.00;;
37169;SDS011;23062;13.952;100.608;2022-08-23T18:57:16;11.00;;;7.00;;
37169;SDS011;23062;13.952;100.608;2022-08-23T19:02:06;9.00;;;6.00;;
37169;SDS011;23062;13.952;100.608;2022-08-23T19:06:56;8.00;;;5.00;;
37169;SDS011;23062;13.952;100.608;2022-08-23T19:11:46;8.00;;;5.00;;
37169;SDS011;23062;13.952;100.608;2022-08-23T19:16:35;7.00;;;5.00;;
37169;SDS011;23062;13.952;100.608;2022-08-23T19:21:26;8.00;;;5.00;;
37169;SDS011;23062;13.952;100.608;2022-08-23T19:26:16;8.00;;;5.00;;
37169;SDS011;23062;13.952;100.608;2022-08-23T19:31:07;6.00;;;4.00;;
37169;SDS011;23062;13.952;100.608;2022-08-23T19:35:57;8.00;;;5.00;;
37169;SDS011;23062;13.952;100.608;2022-08-23T19:40:46;7.00;;;5.00;;
37169;SDS011;23062;13.952;100.608;2022-08-23T19:45:37;6.00;;;4.00;;
37169;SDS011;23062;13.952;100.608;2022-08-23T19:50:27;6.00;;;4.00;;
37169;SDS011;23062;13.952;100.608;2022-08-23T19:55:16;4.00;;;3.00;;
37169;SDS011;23062;13.952;100.608;2022-08-23T20:00:08;5.00;;;3.00;;
37169;SDS011;23062;13.952;100.608;2022-08-23T20:04:59;5.00;;;3.00;;
37169;SDS011;23062;13.952;100.608;2022-08-23T20:09:49;5.00;;;3.00;;
37169;SDS011;23062;13.952;100.608;2022-08-23T20:14:38;5.00;;;3.00;;
37169;SDS011;23062;13.952;100.608;2022-08-23T20:19:29;3.00;;;2.00;;
37169;SDS011;23062;13.952;100.608;2022-08-23T20:24:18;5.00;;;3.00;;
37169;SDS011;23062;13.952;100.608;2022-08-23T20:29:11;3.00;;;2.00;;
37169;SDS011;23062;13.952;100.608;2022-08-23T20:34:00;5.00;;;3.00;;
37169;SDS011;23062;13.952;100.608;2022-08-23T20:38:50;5.00;;;3.00;;
37169;SDS011;23062;13.952;100.608;2022-08-23T20:43:39;4.00;;;2.00;;
37169;SDS011;23062;13.952;100.608;2022-08-23T20:48:29;4.00;;;3.00;;
37169;SDS011;23062;13.952;100.608;2022-08-23T20:53:19;4.00;;;2.00;;
37169;SDS011;23062;13.952;100.608;2022-08-23T20:58:08;4.00;;;3.00;;
37169;SDS011;23062;13.952;100.608;2022-08-23T21:02:58;5.00;;;3.00;;
37169;SDS011;23062;13.952;100.608;2022-08-23T21:07:49;4.00;;;2.00;;
37169;SDS011;23062;13.952;100.608;2022-08-23T21:12:38;5.00;;;3.00;;
37169;SDS011;23062;13.952;100.608;2022-08-23T21:17:28;4.00;;;1.73;;
37169;SDS011;23062;13.952;100.608;2022-08-23T21:22:17;6.00;;;4.00;;
37169;SDS011;23062;13.952;100.608;2022-08-23T21:27:08;6.00;;;4.00;;
37169;SDS011;23062;13.952;100.608;2022-08-23T21:31:57;6.00;;;4.00;;
37169;SDS011;23062;13.952;100.608;2022-08-23T21:36:46;5.00;;;3.00;;
37169;SDS011;23062;13.952;100.608;2022-08-23T21:41:37;6.00;;;4.00;;
37169;SDS011;23062;13.952;100.608;2022-08-23T21:46:28;8.00;;;5.00;;
37169;SDS011;23062;13.952;100.608;2022-08-23T21:51:17;6.00;;;4.00;;
37169;SDS011;23062;13.952;100.608;2022-08-23T21:56:07;6.00;;;4.00;;
37169;SDS011;23062;13.952;100.608;2022-08-23T22:00:56;5.00;;;3.00;;
37169;SDS011;23062;13.952;100.608;2022-08-23T22:05:46;9.00;;;6.00;;
37169;SDS011;23062;13.952;100.608;2022-08-23T22:10:35;8.00;;;5.00;;
37169;SDS011;23062;13.952;100.608;2022-08-23T22:15:26;5.00;;;4.00;;
37169;SDS011;23062;13.952;100.608;2022-08-23T22:20:16;7.00;;;5.00;;
37169;SDS011;23062;13.952;100.608;2022-08-23T22:25:06;9.00;;;6.00;;
37169;SDS011;23062;13.952;100.608;2022-08-23T22:29:56;8.00;;;6.00;;
37169;SDS011;23062;13.952;100.608;2022-08-23T22:34:45;11.00;;;7.00;;
37169;SDS011;23062;13.952;100.608;2022-08-23T22:39:36;10.00;;;7.00;;
37169;SDS011;23062;13.952;100.608;2022-08-23T22:44:26;10.00;;;7.00;;
37169;SDS011;23062;13.952;100.608;2022-08-23T22:49:15;8.00;;;6.00;;
37169;SDS011;23062;13.952;100.608;2022-08-23T22:54:07;10.00;;;7.00;;
37169;SDS011;23062;13.952;100.608;2022-08-23T22:58:56;8.00;;;6.00;;
37169;SDS011;23062;13.952;100.608;2022-08-23T23:03:46;7.00;;;5.00;;
37169;SDS011;23062;13.952;100.608;2022-08-23T23:08:36;5.00;;;4.00;;
37169;SDS011;23062;13.952;100.608;2022-08-23T23:13:29;8.00;;;5.00;;
37169;SDS011;23062;13.952;100.608;2022-08-23T23:18:19;6.00;;;4.00;;
37169;SDS011;23062;13.952;100.608;2022-08-23T23:23:10;6.00;;;4.00;;
37169;SDS011;23062;13.952;100.608;2022-08-23T23:28:00;7.00;;;5.00;;
37169;SDS011;23062;13.952;100.608;2022-08-23T23:32:50;8.00;;;6.00;;
37169;SDS011;23062;13.952;100.608;2022-08-23T23:37:39;7.00;;;5.00;;
37169;SDS011;23062;13.952;100.608;2022-08-23T23:42:29;7.00;;;5.00;;
37169;SDS011;23062;13.952;100.608;2022-08-23T23:47:18;9.00;;;6.00;;
37169;SDS011;23062;13.952;100.608;2022-08-23T23:52:08;9.00;;;6.00;;
37169;SDS011;23062;13.952;100.608;2022-08-23T23:56:58;13.00;;;9.00;;
